createdAt,value
2017-08-15T00:01:43.990Z,5.93
2017-08-15T00:04:11.852Z,4.80
2017-08-15T00:06:39.653Z,4.40
2017-08-15T00:09:07.490Z,5.03
2017-08-15T00:11:35.348Z,4.75
2017-08-15T00:14:03.168Z,4.55
2017-08-15T00:16:31.803Z,4.25
2017-08-15T00:18:59.612Z,4.07
2017-08-15T00:21:27.417Z,4.32
2017-08-15T00:23:55.260Z,4.75
2017-08-15T00:26:23.096Z,4.87
2017-08-15T00:28:51.723Z,4.53
2017-08-15T00:31:19.565Z,4.15
2017-08-15T00:33:47.399Z,5.43
2017-08-15T00:36:15.325Z,5.22
2017-08-15T00:38:43.129Z,4.68
2017-08-15T00:41:11.793Z,4.70
2017-08-15T00:43:39.653Z,4.60
2017-08-15T00:46:07.474Z,4.20
2017-08-15T00:48:35.324Z,4.60
2017-08-15T00:51:03.186Z,4.75
2017-08-15T00:53:31.064Z,4.40
2017-08-15T00:55:58.924Z,4.80
2017-08-15T00:58:26.752Z,4.30
2017-08-15T01:00:55.457Z,4.68
2017-08-15T01:03:23.297Z,4.80
2017-08-15T01:05:51.977Z,4.65
2017-08-15T01:08:19.820Z,4.57
2017-08-15T01:10:47.633Z,4.62
2017-08-15T01:13:15.469Z,5.03
2017-08-15T01:15:44.054Z,3.97
2017-08-15T01:18:12.693Z,5.32
2017-08-15T01:20:40.584Z,4.60
2017-08-15T01:23:08.397Z,5.78
2017-08-15T01:25:36.223Z,5.43
2017-08-15T01:28:04.789Z,5.30
2017-08-15T01:30:32.666Z,5.05
2017-08-15T01:33:01.239Z,6.30
2017-08-15T01:35:29.065Z,4.70
2017-08-15T01:37:56.882Z,4.43
2017-08-15T01:40:24.726Z,4.72
2017-08-15T01:42:52.593Z,5.15
2017-08-15T01:45:20.402Z,4.80
2017-08-15T01:47:48.216Z,4.30
2017-08-15T01:50:16.046Z,5.53
2017-08-15T01:52:43.872Z,4.20
2017-08-15T01:55:11.782Z,5.60
2017-08-15T01:57:39.604Z,5.87
2017-08-15T02:00:07.471Z,5.03
2017-08-15T02:02:35.305Z,3.92
2017-08-15T02:05:03.101Z,5.40
2017-08-15T02:07:30.970Z,4.68
2017-08-15T02:09:58.784Z,5.00
2017-08-15T02:12:26.619Z,5.62
2017-08-15T02:14:54.464Z,5.40
2017-08-15T02:17:22.290Z,5.55
2017-08-15T02:19:50.916Z,5.82
2017-08-15T02:22:18.726Z,5.90
2017-08-15T02:24:46.524Z,5.80
2017-08-15T02:27:14.381Z,6.18
2017-08-15T02:29:42.185Z,5.40
2017-08-15T02:32:10.053Z,6.00
2017-08-15T02:34:37.879Z,6.30
2017-08-15T02:37:05.696Z,4.85
2017-08-15T02:39:33.545Z,5.15
2017-08-15T02:42:01.353Z,5.12
2017-08-15T02:44:29.217Z,5.97
2017-08-15T02:46:57.045Z,5.97
2017-08-15T02:49:24.852Z,6.18
2017-08-15T02:51:52.689Z,6.15
2017-08-15T02:54:21.262Z,6.18
2017-08-15T02:56:49.117Z,6.30
2017-08-15T02:59:16.943Z,5.55
2017-08-15T03:01:44.750Z,6.18
2017-08-15T03:04:12.586Z,5.80
2017-08-15T03:06:40.400Z,5.93
2017-08-15T03:09:08.258Z,5.75
2017-08-15T03:11:36.880Z,5.50
2017-08-15T03:14:04.689Z,5.50
2017-08-15T03:16:33.292Z,4.95
2017-08-15T03:19:01.098Z,5.55
2017-08-15T03:21:28.993Z,5.90
2017-08-15T03:23:57.570Z,6.22
2017-08-15T03:26:25.369Z,6.18
2017-08-15T03:28:53.226Z,5.93
2017-08-15T03:31:21.028Z,6.45
2017-08-15T03:33:48.942Z,5.70
2017-08-15T03:36:17.509Z,5.95
2017-08-15T03:38:45.318Z,6.65
2017-08-15T03:41:13.152Z,6.95
2017-08-15T03:43:41.749Z,5.75
2017-08-15T03:46:09.610Z,6.35
2017-08-15T03:48:37.413Z,6.00
2017-08-15T03:51:05.260Z,7.25
2017-08-15T03:53:33.085Z,6.07
2017-08-15T03:56:01.661Z,5.75
2017-08-15T03:58:30.296Z,5.28
2017-08-15T04:00:58.109Z,5.25
2017-08-15T04:03:26.722Z,5.45
2017-08-15T04:05:54.565Z,4.97
2017-08-15T04:08:22.390Z,5.15
2017-08-15T04:10:50.256Z,5.43
2017-08-15T04:13:18.066Z,6.07
2017-08-15T04:15:45.861Z,4.53
2017-08-15T04:18:13.707Z,4.80
2017-08-15T04:20:41.529Z,5.70
2017-08-15T04:23:09.389Z,4.87
2017-08-15T04:25:37.960Z,4.62
2017-08-15T04:28:05.766Z,4.97
2017-08-15T04:30:33.622Z,5.15
2017-08-15T04:33:01.430Z,5.30
2017-08-15T04:35:29.302Z,5.55
2017-08-15T04:37:57.109Z,5.93
2017-08-15T04:40:24.925Z,5.25
2017-08-15T04:42:52.788Z,5.10
2017-08-15T04:45:20.631Z,3.95
2017-08-15T04:47:48.433Z,4.30
2017-08-15T04:50:17.064Z,4.60
2017-08-15T04:52:44.877Z,4.15
2017-08-15T04:55:13.452Z,5.20
2017-08-15T04:57:41.308Z,4.70
2017-08-15T05:00:09.119Z,4.05
2017-08-15T05:02:36.930Z,3.83
2017-08-15T05:05:04.773Z,4.40
2017-08-15T05:07:32.581Z,4.35
2017-08-15T05:10:01.174Z,4.30
2017-08-15T05:12:29.009Z,4.03
2017-08-15T05:14:56.913Z,4.75
2017-08-15T05:17:24.721Z,4.12
2017-08-15T05:19:52.552Z,5.03
2017-08-15T05:22:20.357Z,5.05
2017-08-15T05:24:48.168Z,4.35
2017-08-15T05:27:16.038Z,4.47
2017-08-15T05:29:43.845Z,4.22
2017-08-15T05:32:11.721Z,4.37
2017-08-15T05:34:39.522Z,4.07
2017-08-15T05:37:07.360Z,4.03
2017-08-15T05:39:35.958Z,4.53
2017-08-15T05:42:03.780Z,3.58
2017-08-15T05:44:31.640Z,3.65
2017-08-15T05:46:59.461Z,3.92
2017-08-15T05:49:27.285Z,3.30
2017-08-15T05:51:55.882Z,3.25
2017-08-15T05:54:23.684Z,2.97
2017-08-15T05:56:51.559Z,3.22
2017-08-15T05:59:19.361Z,2.40
2017-08-15T06:01:47.973Z,3.37
2017-08-15T06:04:15.848Z,2.90
2017-08-15T06:06:43.676Z,3.35
2017-08-15T06:09:11.601Z,3.03
2017-08-15T06:11:39.433Z,3.67
2017-08-15T06:14:07.228Z,3.33
2017-08-15T06:16:35.058Z,2.80
2017-08-15T06:19:02.904Z,3.20
2017-08-15T06:21:31.596Z,3.15
2017-08-15T06:23:59.426Z,3.95
2017-08-15T06:26:28.005Z,3.65
2017-08-15T06:28:56.610Z,4.00
2017-08-15T06:31:24.427Z,3.42
2017-08-15T06:33:52.285Z,4.03
2017-08-15T06:36:20.105Z,3.67
2017-08-15T06:38:47.920Z,4.20
2017-08-15T06:41:15.757Z,3.60
2017-08-15T06:43:43.572Z,4.57
2017-08-15T06:46:12.209Z,3.60
2017-08-15T06:48:40.016Z,3.00
2017-08-15T06:51:08.611Z,4.18
2017-08-15T06:53:36.517Z,3.62
2017-08-15T06:56:04.337Z,4.25
2017-08-15T06:58:32.204Z,3.50
2017-08-15T07:01:00.026Z,3.65
2017-08-15T07:03:28.637Z,3.60
2017-08-15T07:05:56.489Z,3.30
2017-08-15T07:08:25.088Z,3.62
2017-08-15T07:10:53.013Z,4.18
2017-08-15T07:13:20.820Z,3.23
2017-08-15T07:15:48.645Z,4.27
2017-08-15T07:18:16.505Z,3.97
2017-08-15T07:20:44.388Z,4.57
2017-08-15T07:23:13.033Z,4.20
2017-08-15T07:25:40.849Z,3.53
2017-08-15T07:28:08.659Z,3.70
2017-08-15T07:30:36.505Z,3.40
2017-08-15T07:33:04.321Z,4.40
2017-08-15T07:35:33.668Z,4.50
2017-08-15T07:38:01.508Z,4.10
2017-08-15T07:40:29.341Z,4.80
2017-08-15T07:42:57.960Z,4.30
2017-08-15T07:45:25.788Z,4.00
2017-08-15T07:47:53.658Z,4.00
2017-08-15T07:50:22.252Z,4.90
2017-08-15T07:52:50.077Z,6.63
2017-08-15T07:55:17.931Z,4.60
2017-08-15T07:57:45.844Z,4.30
2017-08-15T08:00:13.785Z,4.33
2017-08-15T08:02:42.408Z,3.63
2017-08-15T08:05:10.245Z,5.07
2017-08-15T08:07:38.095Z,5.07
2017-08-15T08:10:06.688Z,4.87
2017-08-15T08:12:35.327Z,4.23
2017-08-15T08:15:03.151Z,4.20
2017-08-15T08:17:30.987Z,5.03
2017-08-15T08:19:59.592Z,4.30
2017-08-15T08:22:27.413Z,4.30
2017-08-15T08:24:55.294Z,5.07
2017-08-15T08:27:23.885Z,4.40
2017-08-15T08:29:52.458Z,4.37
2017-08-15T08:32:21.123Z,5.13
2017-08-15T08:34:49.065Z,4.60
2017-08-15T08:37:17.166Z,4.50
2017-08-15T08:39:45.575Z,5.17
2017-08-15T08:42:13.392Z,4.10
2017-08-15T08:44:41.275Z,4.47
2017-08-15T08:47:10.141Z,4.77
2017-08-15T08:49:38.057Z,4.20
2017-08-15T08:52:05.889Z,3.70
2017-08-15T08:54:34.470Z,3.67
2017-08-15T08:57:03.102Z,4.40
2017-08-15T08:59:31.084Z,5.00
2017-08-15T09:01:59.877Z,4.70
2017-08-15T09:04:29.328Z,4.30
2017-08-15T09:06:57.141Z,4.47
2017-08-15T09:09:25.001Z,4.40
2017-08-15T09:11:52.805Z,5.00
2017-08-15T09:14:20.681Z,4.50
2017-08-15T09:16:48.657Z,5.53
2017-08-15T09:19:16.791Z,4.20
2017-08-15T09:21:44.796Z,3.67
2017-08-15T09:24:12.677Z,5.10
2017-08-15T09:26:40.674Z,4.70
2017-08-15T09:29:08.493Z,4.90
2017-08-15T09:31:36.402Z,4.95
2017-08-15T09:34:04.698Z,4.75
2017-08-15T09:36:32.538Z,4.78
2017-08-15T09:39:00.527Z,4.82
2017-08-15T09:41:29.155Z,4.50
2017-08-15T09:43:57.000Z,4.75
2017-08-15T09:46:24.897Z,5.35
2017-08-15T09:48:52.767Z,5.75
2017-08-15T09:51:20.638Z,5.90
2017-08-15T09:53:48.438Z,5.53
2017-08-15T09:56:17.056Z,6.07
2017-08-15T09:58:50.592Z,5.55
2017-08-15T10:01:19.345Z,5.43
2017-08-15T10:03:47.340Z,4.80
2017-08-15T10:06:15.207Z,5.55
2017-08-15T10:08:43.857Z,5.32
2017-08-15T10:11:11.851Z,5.32
2017-08-15T10:13:39.764Z,5.72
2017-08-15T10:16:07.884Z,5.12
2017-08-15T10:18:36.519Z,4.32
2017-08-15T10:21:04.453Z,6.28
2017-08-15T10:23:33.176Z,5.70
2017-08-15T10:26:00.989Z,5.82
2017-08-15T10:28:28.863Z,5.22
2017-08-15T10:30:57.490Z,5.65
2017-08-15T10:33:25.329Z,5.80
2017-08-15T10:35:53.321Z,5.70
2017-08-15T10:38:21.228Z,7.03
2017-08-15T10:40:49.108Z,6.32
2017-08-15T10:43:17.001Z,5.25
2017-08-15T10:45:44.805Z,5.70
2017-08-15T10:48:12.644Z,6.22
2017-08-15T10:50:40.454Z,5.47
2017-08-15T10:53:09.109Z,5.70
2017-08-15T10:55:36.990Z,6.68
2017-08-15T10:58:04.874Z,5.22
2017-08-15T11:00:33.609Z,6.03
2017-08-15T11:03:01.416Z,6.45
2017-08-15T11:05:30.046Z,5.50
2017-08-15T11:07:57.853Z,5.30
2017-08-15T11:10:25.662Z,6.12
2017-08-15T11:12:53.539Z,6.62
2017-08-15T11:15:21.355Z,5.72
2017-08-15T11:17:49.467Z,5.07
2017-08-15T11:20:17.634Z,5.72
2017-08-15T11:22:45.473Z,6.65
2017-08-15T11:25:13.392Z,5.50
2017-08-15T11:27:41.278Z,5.32
2017-08-15T11:30:09.150Z,5.75
2017-08-15T11:32:37.033Z,5.50
2017-08-15T11:35:04.895Z,5.47
2017-08-15T11:37:32.888Z,5.12
2017-08-15T11:40:00.860Z,6.05
2017-08-15T11:42:28.909Z,6.00
2017-08-15T11:44:56.900Z,4.47
2017-08-15T11:47:24.762Z,4.40
2017-08-15T11:49:52.758Z,4.35
2017-08-15T11:52:20.781Z,4.28
2017-08-15T11:54:48.971Z,4.15
2017-08-15T11:57:16.921Z,3.70
2017-08-15T11:59:44.779Z,3.85
2017-08-15T12:02:12.659Z,4.35
2017-08-15T12:04:40.473Z,3.20
2017-08-15T12:07:09.368Z,2.53
2017-08-15T12:09:37.292Z,4.47
2017-08-15T12:12:05.154Z,3.92
2017-08-15T12:14:33.197Z,4.55
2017-08-15T12:17:01.105Z,4.18
2017-08-15T12:19:29.253Z,4.28
2017-08-15T12:21:57.118Z,3.78
2017-08-15T12:24:25.027Z,4.47
2017-08-15T12:26:52.956Z,4.50
2017-08-15T12:29:20.808Z,4.00
2017-08-15T12:35:08.257Z,4.93
2017-08-15T12:37:37.977Z,4.43
2017-08-15T12:45:15.565Z,3.60
2017-08-15T12:47:46.248Z,4.50
2017-08-15T12:50:16.053Z,4.03
2017-08-15T12:52:47.278Z,3.60
2017-08-15T12:55:20.711Z,3.50
2017-08-15T12:57:51.517Z,3.75
2017-08-15T13:02:54.620Z,3.85
2017-08-15T13:05:25.468Z,4.15
2017-08-15T13:07:59.048Z,3.85
2017-08-15T13:13:13.114Z,4.90
2017-08-15T13:15:43.392Z,3.62
2017-08-15T13:18:33.135Z,4.20
2017-08-15T13:21:03.258Z,4.20
2017-08-15T13:23:51.616Z,4.00
2017-08-15T13:26:30.271Z,3.17
2017-08-15T13:37:01.349Z,3.45
2017-08-15T13:39:33.422Z,4.03
2017-08-15T13:42:12.054Z,4.32
2017-08-15T13:44:45.021Z,4.00
2017-08-15T13:47:16.281Z,3.45
2017-08-15T13:55:10.103Z,4.03
2017-08-15T13:57:47.384Z,3.35
2017-08-15T14:00:19.987Z,3.45
2017-08-15T14:05:23.727Z,2.85
2017-08-15T14:07:57.356Z,4.30
2017-08-15T14:13:22.279Z,4.35
2017-08-15T14:15:53.729Z,3.72
2017-08-15T14:18:24.724Z,4.18
2017-08-15T14:23:42.770Z,4.05
2017-08-15T14:26:14.861Z,4.15
2017-08-15T14:28:50.584Z,4.10
2017-08-15T14:31:24.726Z,3.90
2017-08-15T14:33:54.134Z,4.03
2017-08-15T14:36:36.258Z,3.75
2017-08-15T14:44:49.289Z,3.53
2017-08-15T14:47:25.887Z,3.58
2017-08-15T14:49:59.624Z,4.18
2017-08-15T14:52:44.365Z,3.87
2017-08-15T14:55:16.874Z,3.60
2017-08-15T14:57:45.191Z,4.20
2017-08-15T15:00:24.399Z,3.25
2017-08-15T15:05:30.427Z,4.53
2017-08-15T15:08:10.333Z,4.00
2017-08-15T15:10:41.605Z,4.00
2017-08-15T15:15:52.940Z,3.37
2017-08-15T15:18:25.880Z,3.17
2017-08-15T15:20:59.541Z,3.00
2017-08-15T15:23:36.006Z,3.50
2017-08-15T15:26:14.967Z,3.87
2017-08-15T15:28:45.093Z,3.83
2017-08-15T15:31:19.694Z,4.00
2017-08-15T15:33:50.914Z,3.25
2017-08-15T15:36:32.601Z,3.47
2017-08-15T15:39:06.096Z,4.43
2017-08-15T15:41:39.232Z,3.40
2017-08-15T15:44:16.104Z,4.65
2017-08-15T15:46:58.124Z,3.97
2017-08-15T15:52:14.198Z,3.80
2017-08-15T15:54:42.386Z,3.58
2017-08-15T15:57:12.540Z,3.92
2017-08-15T15:59:42.658Z,3.85
2017-08-15T16:02:21.191Z,3.42
2017-08-15T16:04:52.427Z,3.28
2017-08-15T16:15:26.210Z,3.67
2017-08-15T16:18:02.702Z,3.45
2017-08-15T16:25:53.917Z,4.05
2017-08-15T16:28:25.851Z,4.00
2017-08-15T16:36:20.825Z,3.50
2017-08-15T16:38:52.464Z,4.00
2017-08-15T16:41:26.181Z,4.07
2017-08-15T16:43:56.365Z,4.15
2017-08-15T16:46:27.978Z,3.67
2017-08-15T16:49:03.005Z,3.83
2017-08-15T16:54:39.969Z,3.62
2017-08-15T16:57:09.978Z,3.60
2017-08-15T16:59:43.539Z,3.65
2017-08-15T17:02:17.154Z,3.40
2017-08-15T17:07:24.771Z,4.35
2017-08-15T17:12:42.290Z,4.45
2017-08-15T17:15:16.457Z,3.83
2017-08-15T17:17:45.101Z,4.65
2017-08-15T17:20:13.315Z,3.95
2017-08-15T17:25:20.367Z,4.50
2017-08-15T17:27:55.230Z,4.70
2017-08-15T17:30:24.148Z,4.70
2017-08-15T17:32:52.779Z,4.70
2017-08-15T17:35:20.697Z,4.43
2017-08-15T17:37:48.636Z,4.12
2017-08-15T17:40:19.739Z,4.10
2017-08-15T17:42:48.578Z,4.37
2017-08-15T17:45:17.840Z,3.83
2017-08-15T17:47:47.163Z,3.75
2017-08-15T17:52:53.655Z,3.90
2017-08-15T17:58:08.913Z,4.05
2017-08-15T18:00:37.620Z,4.53
2017-08-15T18:03:05.542Z,4.18
2017-08-15T18:05:36.677Z,5.25
2017-08-15T18:08:04.820Z,4.40
2017-08-15T18:10:43.764Z,4.97
2017-08-15T18:15:59.786Z,4.30
2017-08-15T18:18:28.631Z,4.40
2017-08-15T18:20:56.541Z,4.87
2017-08-15T18:23:25.223Z,4.78
2017-08-15T18:25:58.892Z,4.82
2017-08-15T18:28:29.435Z,4.20
2017-08-15T18:30:57.411Z,4.22
2017-08-15T18:33:26.979Z,5.25
2017-08-15T18:35:54.948Z,5.10
2017-08-15T18:38:30.920Z,4.95
2017-08-15T18:40:58.879Z,5.03
2017-08-15T18:43:27.107Z,5.00
2017-08-15T18:45:55.023Z,5.05
2017-08-15T18:48:22.974Z,5.75
2017-08-15T18:50:51.989Z,4.97
2017-08-15T18:53:20.634Z,5.68
2017-08-15T18:55:48.747Z,5.05
2017-08-15T18:58:17.382Z,4.40
2017-08-15T19:00:45.330Z,4.90
2017-08-15T19:03:17.179Z,5.20
2017-08-15T19:05:57.793Z,4.65
2017-08-15T19:08:27.198Z,5.60
2017-08-15T19:10:55.767Z,4.68
2017-08-15T19:13:42.640Z,4.95
2017-08-15T19:16:12.203Z,4.40
2017-08-15T19:18:40.894Z,4.37
2017-08-15T19:21:09.653Z,4.35
2017-08-15T19:23:38.380Z,5.15
2017-08-15T19:26:06.275Z,4.85
2017-08-15T19:28:34.208Z,5.32
2017-08-15T19:31:02.093Z,5.10
2017-08-15T19:33:30.116Z,5.03
2017-08-15T19:35:59.633Z,5.10
2017-08-15T19:38:28.323Z,4.78
2017-08-15T19:40:57.963Z,4.75
2017-08-15T19:43:26.033Z,4.55
2017-08-15T19:45:53.970Z,4.82
2017-08-15T19:48:21.907Z,5.50
2017-08-15T19:50:51.210Z,5.28
2017-08-15T19:53:19.177Z,4.45
2017-08-15T19:55:49.241Z,5.70
2017-08-15T19:58:17.191Z,5.05
2017-08-15T20:03:22.408Z,4.60
2017-08-15T20:05:55.346Z,6.37
2017-08-15T20:08:24.376Z,4.30
2017-08-15T20:10:53.497Z,5.62
2017-08-15T20:13:22.406Z,5.37
2017-08-15T20:15:56.914Z,5.25
2017-08-15T20:18:27.396Z,5.05
2017-08-15T20:20:58.421Z,4.85
2017-08-15T20:23:27.735Z,5.68
2017-08-15T20:26:08.442Z,6.43
2017-08-15T20:28:46.346Z,4.90
2017-08-15T20:31:14.822Z,5.72
2017-08-15T20:33:52.319Z,6.12
2017-08-15T20:36:21.592Z,5.75
2017-08-15T20:38:52.639Z,5.47
2017-08-15T20:41:21.430Z,5.18
2017-08-15T20:43:52.133Z,5.65
2017-08-15T20:48:55.096Z,5.47
2017-08-15T20:51:28.810Z,4.45
2017-08-15T20:53:59.169Z,4.90
2017-08-15T20:56:29.398Z,5.15
2017-08-15T20:58:57.307Z,5.57
2017-08-15T21:01:27.302Z,5.05
2017-08-15T21:03:57.652Z,5.82
2017-08-15T21:06:26.676Z,5.37
2017-08-15T21:08:54.804Z,4.90
2017-08-15T21:11:23.165Z,4.80
2017-08-15T21:13:51.202Z,5.35
2017-08-15T21:16:24.229Z,5.43
2017-08-15T21:18:57.405Z,5.25
2017-08-15T21:21:26.112Z,5.53
2017-08-15T21:23:54.791Z,5.50
2017-08-15T21:26:22.710Z,5.95
2017-08-15T21:28:50.626Z,5.60
2017-08-15T21:31:19.359Z,5.18
2017-08-15T21:33:49.318Z,5.40
2017-08-15T21:36:19.041Z,5.82
2017-08-15T21:38:47.045Z,5.68
2017-08-15T21:41:22.208Z,5.28
2017-08-15T21:43:53.333Z,6.32
2017-08-15T21:46:21.363Z,5.90
2017-08-15T21:51:35.602Z,6.28
2017-08-15T21:54:07.578Z,6.65
2017-08-15T21:56:44.556Z,6.32
2017-08-15T21:59:14.517Z,6.10
2017-08-15T22:02:00.032Z,6.70
2017-08-15T22:04:28.715Z,6.70
2017-08-15T22:06:56.576Z,6.20
2017-08-15T22:09:24.454Z,6.75
2017-08-15T22:11:53.113Z,7.47
2017-08-15T22:14:21.062Z,6.70
2017-08-15T22:16:49.027Z,6.60
2017-08-15T22:19:16.873Z,6.47
2017-08-15T22:21:44.750Z,7.32
2017-08-15T22:24:12.654Z,6.57
2017-08-15T22:26:40.535Z,7.62
2017-08-15T22:29:08.602Z,6.37
2017-08-15T22:31:37.770Z,6.72
2017-08-15T22:34:07.350Z,7.18
2017-08-15T22:36:35.252Z,8.20
2017-08-15T22:39:04.025Z,7.00
2017-08-15T22:41:33.116Z,7.05
2017-08-15T22:44:01.848Z,6.87
2017-08-15T22:46:31.447Z,6.50
2017-08-15T22:48:59.422Z,8.38
2017-08-15T22:51:27.330Z,6.72
2017-08-15T22:53:55.269Z,7.28
2017-08-15T22:56:23.173Z,7.32
2017-08-15T22:58:52.087Z,7.32
2017-08-15T23:01:20.001Z,7.75
2017-08-15T23:03:47.859Z,8.23
2017-08-15T23:06:15.788Z,8.63
2017-08-15T23:08:43.687Z,8.80
2017-08-15T23:11:11.567Z,7.35
2017-08-15T23:13:39.459Z,7.93
2017-08-15T23:16:08.088Z,7.78
2017-08-15T23:18:36.022Z,7.87
2017-08-15T23:21:03.882Z,8.45
2017-08-15T23:23:31.775Z,8.93
2017-08-15T23:25:59.656Z,8.25
2017-08-15T23:28:27.527Z,7.57
2017-08-15T23:30:55.503Z,8.90
2017-08-15T23:33:23.381Z,10.27
2017-08-15T23:35:52.054Z,8.07
2017-08-15T23:38:20.499Z,9.93
2017-08-15T23:40:48.358Z,8.75
2017-08-15T23:43:16.290Z,9.23
2017-08-15T23:45:44.920Z,8.40
2017-08-15T23:48:12.769Z,8.73
2017-08-15T23:50:40.657Z,9.25
2017-08-15T23:53:08.557Z,8.90
2017-08-15T23:55:37.619Z,9.75
2017-08-15T23:58:05.527Z,9.82
